sensor_id;sensor_type;location;lat;lon;timestamp;P1;durP1;ratioP1;P2;durP2;ratioP2
84254;SDS011;74400;44.692;18.998;2024-03-23T00:53:52;22.73;;;9.18;;
84254;SDS011;74400;44.692;18.998;2024-03-23T00:56:18;17.23;;;9.07;;
84254;SDS011;74400;44.692;18.998;2024-03-23T00:58:43;14.63;;;8.93;;
84254;SDS011;74400;44.692;18.998;2024-03-23T01:01:09;14.98;;;9.30;;
84254;SDS011;74400;44.692;18.998;2024-03-23T01:03:35;13.10;;;7.43;;
84254;SDS011;74400;44.692;18.998;2024-03-23T01:06:00;15.57;;;8.50;;
84254;SDS011;74400;44.692;18.998;2024-03-23T01:08:27;15.68;;;7.65;;
84254;SDS011;74400;44.692;18.998;2024-03-23T01:10:59;19.00;;;9.20;;
84254;SDS011;74400;44.692;18.998;2024-03-23T01:13:26;17.85;;;9.05;;
84254;SDS011;74400;44.692;18.998;2024-03-23T01:15:54;20.17;;;8.57;;
84254;SDS011;74400;44.692;18.998;2024-03-23T01:18:21;16.67;;;8.20;;
84254;SDS011;74400;44.692;18.998;2024-03-23T01:20:48;14.18;;;8.32;;
84254;SDS011;74400;44.692;18.998;2024-03-23T01:23:14;14.98;;;9.23;;
84254;SDS011;74400;44.692;18.998;2024-03-23T01:25:40;18.88;;;8.93;;
84254;SDS011;74400;44.692;18.998;2024-03-23T01:28:05;18.38;;;9.25;;
84254;SDS011;74400;44.692;18.998;2024-03-23T01:30:32;18.98;;;9.50;;
84254;SDS011;74400;44.692;18.998;2024-03-23T01:32:59;18.83;;;10.25;;
84254;SDS011;74400;44.692;18.998;2024-03-23T01:35:24;17.80;;;8.93;;
84254;SDS011;74400;44.692;18.998;2024-03-23T01:37:50;17.02;;;9.63;;
84254;SDS011;74400;44.692;18.998;2024-03-23T01:40:16;16.02;;;7.57;;
84254;SDS011;74400;44.692;18.998;2024-03-23T01:42:42;12.70;;;7.82;;
84254;SDS011;74400;44.692;18.998;2024-03-23T01:45:08;13.88;;;7.82;;
84254;SDS011;74400;44.692;18.998;2024-03-23T01:47:37;18.02;;;8.65;;
84254;SDS011;74400;44.692;18.998;2024-03-23T01:50:03;16.85;;;10.00;;
84254;SDS011;74400;44.692;18.998;2024-03-23T01:52:30;15.80;;;8.70;;
84254;SDS011;74400;44.692;18.998;2024-03-23T01:54:55;18.88;;;9.18;;
84254;SDS011;74400;44.692;18.998;2024-03-23T01:57:21;15.55;;;9.35;;
84254;SDS011;74400;44.692;18.998;2024-03-23T01:59:47;14.82;;;8.93;;
84254;SDS011;74400;44.692;18.998;2024-03-23T02:02:19;17.10;;;8.70;;
84254;SDS011;74400;44.692;18.998;2024-03-23T02:04:45;19.00;;;9.60;;
84254;SDS011;74400;44.692;18.998;2024-03-23T02:07:11;20.58;;;9.23;;
84254;SDS011;74400;44.692;18.998;2024-03-23T02:09:37;19.60;;;8.75;;
84254;SDS011;74400;44.692;18.998;2024-03-23T02:12:03;17.05;;;8.32;;
84254;SDS011;74400;44.692;18.998;2024-03-23T02:14:29;16.40;;;9.25;;
84254;SDS011;74400;44.692;18.998;2024-03-23T02:16:54;20.92;;;8.73;;
84254;SDS011;74400;44.692;18.998;2024-03-23T02:19:20;16.25;;;8.63;;
84254;SDS011;74400;44.692;18.998;2024-03-23T02:21:45;17.33;;;8.75;;
84254;SDS011;74400;44.692;18.998;2024-03-23T02:24:12;18.13;;;9.57;;
84254;SDS011;74400;44.692;18.998;2024-03-23T02:26:38;15.32;;;8.20;;
84254;SDS011;74400;44.692;18.998;2024-03-23T02:29:04;15.75;;;8.13;;
84254;SDS011;74400;44.692;18.998;2024-03-23T02:31:29;13.65;;;7.72;;
84254;SDS011;74400;44.692;18.998;2024-03-23T02:33:55;13.00;;;7.60;;
84254;SDS011;74400;44.692;18.998;2024-03-23T02:36:20;16.48;;;7.93;;
84254;SDS011;74400;44.692;18.998;2024-03-23T02:38:46;15.07;;;8.13;;
84254;SDS011;74400;44.692;18.998;2024-03-23T02:41:12;13.32;;;7.43;;
84254;SDS011;74400;44.692;18.998;2024-03-23T02:43:39;17.30;;;8.25;;
84254;SDS011;74400;44.692;18.998;2024-03-23T02:46:04;16.70;;;8.55;;
84254;SDS011;74400;44.692;18.998;2024-03-23T02:48:30;14.60;;;8.52;;
84254;SDS011;74400;44.692;18.998;2024-03-23T02:50:56;14.98;;;7.85;;
84254;SDS011;74400;44.692;18.998;2024-03-23T02:53:21;15.18;;;7.65;;
84254;SDS011;74400;44.692;18.998;2024-03-23T02:55:47;10.57;;;7.60;;
84254;SDS011;74400;44.692;18.998;2024-03-23T02:58:14;13.48;;;7.22;;
84254;SDS011;74400;44.692;18.998;2024-03-23T03:00:40;14.05;;;7.82;;
84254;SDS011;74400;44.692;18.998;2024-03-23T03:03:05;16.30;;;8.60;;
84254;SDS011;74400;44.692;18.998;2024-03-23T03:05:32;16.83;;;8.63;;
84254;SDS011;74400;44.692;18.998;2024-03-23T03:07:58;15.05;;;8.75;;
84254;SDS011;74400;44.692;18.998;2024-03-23T03:10:23;13.75;;;7.88;;
84254;SDS011;74400;44.692;18.998;2024-03-23T03:12:49;14.00;;;7.18;;
84254;SDS011;74400;44.692;18.998;2024-03-23T03:15:15;14.57;;;7.75;;
84254;SDS011;74400;44.692;18.998;2024-03-23T03:17:40;15.10;;;8.40;;
84254;SDS011;74400;44.692;18.998;2024-03-23T03:22:32;17.92;;;8.93;;
84254;SDS011;74400;44.692;18.998;2024-03-23T03:24:58;13.38;;;8.57;;
84254;SDS011;74400;44.692;18.998;2024-03-23T03:27:25;18.15;;;9.27;;
84254;SDS011;74400;44.692;18.998;2024-03-23T03:29:50;14.93;;;7.60;;
84254;SDS011;74400;44.692;18.998;2024-03-23T03:32:16;13.88;;;7.57;;
84254;SDS011;74400;44.692;18.998;2024-03-23T03:34:42;12.98;;;6.93;;
84254;SDS011;74400;44.692;18.998;2024-03-23T03:37:07;17.48;;;7.95;;
84254;SDS011;74400;44.692;18.998;2024-03-23T03:39:33;14.50;;;7.40;;
84254;SDS011;74400;44.692;18.998;2024-03-23T03:41:59;12.43;;;6.88;;
84254;SDS011;74400;44.692;18.998;2024-03-23T03:44:25;12.70;;;7.07;;
84254;SDS011;74400;44.692;18.998;2024-03-23T03:46:51;13.15;;;7.25;;
84254;SDS011;74400;44.692;18.998;2024-03-23T03:49:17;12.68;;;7.93;;
84254;SDS011;74400;44.692;18.998;2024-03-23T03:51:42;9.55;;;6.53;;
84254;SDS011;74400;44.692;18.998;2024-03-23T03:54:08;19.08;;;8.10;;
84254;SDS011;74400;44.692;18.998;2024-03-23T03:56:33;13.27;;;8.27;;
84254;SDS011;74400;44.692;18.998;2024-03-23T03:58:59;15.55;;;8.32;;
84254;SDS011;74400;44.692;18.998;2024-03-23T04:01:25;15.68;;;8.60;;
84254;SDS011;74400;44.692;18.998;2024-03-23T04:03:50;17.48;;;9.57;;
84254;SDS011;74400;44.692;18.998;2024-03-23T04:06:19;17.85;;;9.73;;
84254;SDS011;74400;44.692;18.998;2024-03-23T04:08:45;18.85;;;9.90;;
84254;SDS011;74400;44.692;18.998;2024-03-23T04:11:10;16.73;;;9.43;;
84254;SDS011;74400;44.692;18.998;2024-03-23T04:13:36;19.98;;;9.40;;
84254;SDS011;74400;44.692;18.998;2024-03-23T04:16:02;23.55;;;10.32;;
84254;SDS011;74400;44.692;18.998;2024-03-23T04:18:28;17.20;;;9.68;;
84254;SDS011;74400;44.692;18.998;2024-03-23T04:20:53;18.40;;;9.93;;
84254;SDS011;74400;44.692;18.998;2024-03-23T04:23:19;17.27;;;9.80;;
84254;SDS011;74400;44.692;18.998;2024-03-23T04:25:46;27.63;;;10.20;;
84254;SDS011;74400;44.692;18.998;2024-03-23T04:28:12;17.60;;;9.07;;
84254;SDS011;74400;44.692;18.998;2024-03-23T04:30:37;18.15;;;9.63;;
84254;SDS011;74400;44.692;18.998;2024-03-23T04:33:03;19.08;;;9.25;;
84254;SDS011;74400;44.692;18.998;2024-03-23T04:35:30;18.33;;;9.45;;
84254;SDS011;74400;44.692;18.998;2024-03-23T04:37:55;18.20;;;9.30;;
84254;SDS011;74400;44.692;18.998;2024-03-23T04:40:23;20.33;;;9.68;;
84254;SDS011;74400;44.692;18.998;2024-03-23T04:42:49;18.55;;;9.52;;
84254;SDS011;74400;44.692;18.998;2024-03-23T04:45:15;21.80;;;10.65;;
84254;SDS011;74400;44.692;18.998;2024-03-23T04:47:41;22.10;;;10.20;;
84254;SDS011;74400;44.692;18.998;2024-03-23T04:50:06;18.88;;;9.88;;
84254;SDS011;74400;44.692;18.998;2024-03-23T04:52:32;19.23;;;9.75;;
84254;SDS011;74400;44.692;18.998;2024-03-23T04:54:58;15.50;;;9.48;;
84254;SDS011;74400;44.692;18.998;2024-03-23T04:57:24;16.55;;;9.27;;
84254;SDS011;74400;44.692;18.998;2024-03-23T04:59:49;22.33;;;10.10;;
84254;SDS011;74400;44.692;18.998;2024-03-23T05:02:15;15.82;;;9.35;;
84254;SDS011;74400;44.692;18.998;2024-03-23T05:04:41;20.00;;;9.32;;
84254;SDS011;74400;44.692;18.998;2024-03-23T05:07:07;14.80;;;8.80;;
84254;SDS011;74400;44.692;18.998;2024-03-23T05:09:33;18.05;;;9.55;;
84254;SDS011;74400;44.692;18.998;2024-03-23T05:11:59;16.30;;;9.60;;
84254;SDS011;74400;44.692;18.998;2024-03-23T05:14:29;18.80;;;9.80;;
84254;SDS011;74400;44.692;18.998;2024-03-23T05:16:54;19.48;;;10.07;;
84254;SDS011;74400;44.692;18.998;2024-03-23T05:19:21;20.98;;;9.77;;
84254;SDS011;74400;44.692;18.998;2024-03-23T05:21:47;19.48;;;9.50;;
84254;SDS011;74400;44.692;18.998;2024-03-23T05:24:13;18.88;;;9.77;;
84254;SDS011;74400;44.692;18.998;2024-03-23T05:26:39;16.85;;;9.82;;
84254;SDS011;74400;44.692;18.998;2024-03-23T05:29:04;22.38;;;10.13;;
84254;SDS011;74400;44.692;18.998;2024-03-23T05:31:32;17.73;;;9.55;;
84254;SDS011;74400;44.692;18.998;2024-03-23T05:33:58;16.65;;;9.93;;
84254;SDS011;74400;44.692;18.998;2024-03-23T05:36:23;22.50;;;9.88;;
84254;SDS011;74400;44.692;18.998;2024-03-23T05:38:49;21.55;;;9.73;;
84254;SDS011;74400;44.692;18.998;2024-03-23T05:41:15;17.88;;;9.55;;
84254;SDS011;74400;44.692;18.998;2024-03-23T05:43:41;15.70;;;9.80;;
84254;SDS011;74400;44.692;18.998;2024-03-23T05:46:07;19.17;;;9.50;;
84254;SDS011;74400;44.692;18.998;2024-03-23T05:48:33;18.88;;;10.27;;
84254;SDS011;74400;44.692;18.998;2024-03-23T05:50:59;17.80;;;9.70;;
84254;SDS011;74400;44.692;18.998;2024-03-23T05:53:25;17.77;;;10.38;;
84254;SDS011;74400;44.692;18.998;2024-03-23T05:55:51;18.10;;;9.85;;
84254;SDS011;74400;44.692;18.998;2024-03-23T05:58:25;16.02;;;10.23;;
84254;SDS011;74400;44.692;18.998;2024-03-23T06:00:56;16.13;;;9.75;;
84254;SDS011;74400;44.692;18.998;2024-03-23T06:03:26;20.00;;;10.02;;
84254;SDS011;74400;44.692;18.998;2024-03-23T06:05:54;17.58;;;9.93;;
84254;SDS011;74400;44.692;18.998;2024-03-23T06:08:21;17.95;;;9.65;;
84254;SDS011;74400;44.692;18.998;2024-03-23T06:10:47;17.63;;;9.13;;
84254;SDS011;74400;44.692;18.998;2024-03-23T06:13:13;13.50;;;9.00;;
84254;SDS011;74400;44.692;18.998;2024-03-23T06:15:39;16.60;;;8.82;;
84254;SDS011;74400;44.692;18.998;2024-03-23T06:18:05;13.60;;;9.02;;
84254;SDS011;74400;44.692;18.998;2024-03-23T06:20:31;13.32;;;8.50;;
84254;SDS011;74400;44.692;18.998;2024-03-23T06:22:57;13.90;;;8.48;;
84254;SDS011;74400;44.692;18.998;2024-03-23T06:25:23;16.60;;;8.88;;
84254;SDS011;74400;44.692;18.998;2024-03-23T06:27:48;13.23;;;8.77;;
84254;SDS011;74400;44.692;18.998;2024-03-23T06:30:14;17.88;;;8.65;;
84254;SDS011;74400;44.692;18.998;2024-03-23T06:32:40;13.23;;;8.75;;
84254;SDS011;74400;44.692;18.998;2024-03-23T06:35:05;12.05;;;8.27;;
84254;SDS011;74400;44.692;18.998;2024-03-23T06:37:32;14.77;;;9.00;;
84254;SDS011;74400;44.692;18.998;2024-03-23T06:39:57;11.98;;;8.48;;
84254;SDS011;74400;44.692;18.998;2024-03-23T06:42:23;14.07;;;8.98;;
84254;SDS011;74400;44.692;18.998;2024-03-23T06:44:49;11.40;;;8.85;;
84254;SDS011;74400;44.692;18.998;2024-03-23T06:47:15;12.45;;;9.13;;
84254;SDS011;74400;44.692;18.998;2024-03-23T06:49:40;13.98;;;8.63;;
84254;SDS011;74400;44.692;18.998;2024-03-23T06:54:32;9.38;;;8.00;;
84254;SDS011;74400;44.692;18.998;2024-03-23T06:56:58;13.13;;;8.65;;
84254;SDS011;74400;44.692;18.998;2024-03-23T06:59:23;11.65;;;8.57;;
84254;SDS011;74400;44.692;18.998;2024-03-23T07:01:49;13.70;;;8.10;;
84254;SDS011;74400;44.692;18.998;2024-03-23T07:04:15;12.98;;;8.52;;
84254;SDS011;74400;44.692;18.998;2024-03-23T07:06:44;12.90;;;7.05;;
84254;SDS011;74400;44.692;18.998;2024-03-23T07:09:10;13.70;;;9.23;;
84254;SDS011;74400;44.692;18.998;2024-03-23T07:11:36;11.93;;;8.90;;
84254;SDS011;74400;44.692;18.998;2024-03-23T07:14:02;13.07;;;8.88;;
84254;SDS011;74400;44.692;18.998;2024-03-23T07:16:28;11.30;;;7.55;;
84254;SDS011;74400;44.692;18.998;2024-03-23T07:18:54;8.95;;;6.35;;
84254;SDS011;74400;44.692;18.998;2024-03-23T07:21:20;11.30;;;5.53;;
84254;SDS011;74400;44.692;18.998;2024-03-23T07:23:46;11.63;;;6.43;;
84254;SDS011;74400;44.692;18.998;2024-03-23T07:26:12;8.23;;;5.82;;
84254;SDS011;74400;44.692;18.998;2024-03-23T07:28:37;10.25;;;6.35;;
84254;SDS011;74400;44.692;18.998;2024-03-23T07:31:08;10.10;;;5.38;;
84254;SDS011;74400;44.692;18.998;2024-03-23T07:33:36;10.45;;;5.93;;
84254;SDS011;74400;44.692;18.998;2024-03-23T07:36:03;10.38;;;5.47;;
84254;SDS011;74400;44.692;18.998;2024-03-23T07:38:30;7.43;;;5.32;;
84254;SDS011;74400;44.692;18.998;2024-03-23T07:43:32;7.70;;;4.95;;
84254;SDS011;74400;44.692;18.998;2024-03-23T07:45:58;6.80;;;5.50;;
84254;SDS011;74400;44.692;18.998;2024-03-23T07:48:25;10.43;;;5.25;;
84254;SDS011;74400;44.692;18.998;2024-03-23T07:53:26;7.85;;;4.90;;
84254;SDS011;74400;44.692;18.998;2024-03-23T07:55:54;5.85;;;5.03;;
84254;SDS011;74400;44.692;18.998;2024-03-23T07:58:26;5.82;;;4.65;;
84254;SDS011;74400;44.692;18.998;2024-03-23T08:00:53;6.95;;;4.93;;
84254;SDS011;74400;44.692;18.998;2024-03-23T08:03:19;4.63;;;4.18;;
84254;SDS011;74400;44.692;18.998;2024-03-23T08:05:45;7.43;;;4.60;;
84254;SDS011;74400;44.692;18.998;2024-03-23T08:08:11;5.40;;;4.70;;
84254;SDS011;74400;44.692;18.998;2024-03-23T08:10:46;5.80;;;5.03;;
84254;SDS011;74400;44.692;18.998;2024-03-23T08:13:13;6.70;;;4.45;;
84254;SDS011;74400;44.692;18.998;2024-03-23T08:15:38;7.70;;;5.13;;
84254;SDS011;74400;44.692;18.998;2024-03-23T08:18:04;7.32;;;4.75;;
84254;SDS011;74400;44.692;18.998;2024-03-23T08:20:30;5.45;;;4.43;;
84254;SDS011;74400;44.692;18.998;2024-03-23T08:22:55;5.28;;;4.20;;
84254;SDS011;74400;44.692;18.998;2024-03-23T08:25:21;5.88;;;4.53;;
84254;SDS011;74400;44.692;18.998;2024-03-23T08:27:47;4.38;;;3.97;;
84254;SDS011;74400;44.692;18.998;2024-03-23T08:30:12;5.85;;;4.03;;
84254;SDS011;74400;44.692;18.998;2024-03-23T08:32:38;4.82;;;4.00;;
84254;SDS011;74400;44.692;18.998;2024-03-23T08:35:04;4.45;;;4.03;;
84254;SDS011;74400;44.692;18.998;2024-03-23T08:37:30;6.95;;;3.95;;
84254;SDS011;74400;44.692;18.998;2024-03-23T08:39:56;4.97;;;3.85;;
84254;SDS011;74400;44.692;18.998;2024-03-23T08:42:21;3.47;;;3.17;;
84254;SDS011;74400;44.692;18.998;2024-03-23T08:44:47;6.10;;;3.92;;
84254;SDS011;74400;44.692;18.998;2024-03-23T08:47:18;4.30;;;3.75;;
84254;SDS011;74400;44.692;18.998;2024-03-23T08:49:44;6.35;;;3.92;;
84254;SDS011;74400;44.692;18.998;2024-03-23T08:52:10;4.13;;;3.72;;
84254;SDS011;74400;44.692;18.998;2024-03-23T08:54:35;5.13;;;4.00;;
84254;SDS011;74400;44.692;18.998;2024-03-23T08:57:02;4.55;;;3.55;;
84254;SDS011;74400;44.692;18.998;2024-03-23T08:59:29;5.57;;;3.30;;
84254;SDS011;74400;44.692;18.998;2024-03-23T09:01:55;4.38;;;2.75;;
84254;SDS011;74400;44.692;18.998;2024-03-23T09:04:21;4.47;;;3.17;;
84254;SDS011;74400;44.692;18.998;2024-03-23T09:06:47;3.22;;;2.92;;
84254;SDS011;74400;44.692;18.998;2024-03-23T09:09:12;5.80;;;3.10;;
84254;SDS011;74400;44.692;18.998;2024-03-23T09:11:38;4.05;;;3.28;;
84254;SDS011;74400;44.692;18.998;2024-03-23T09:14:04;5.65;;;4.00;;
84254;SDS011;74400;44.692;18.998;2024-03-23T09:16:29;5.57;;;3.60;;
84254;SDS011;74400;44.692;18.998;2024-03-23T09:18:55;5.00;;;3.03;;
84254;SDS011;74400;44.692;18.998;2024-03-23T09:21:21;5.20;;;2.83;;
84254;SDS011;74400;44.692;18.998;2024-03-23T09:23:46;3.97;;;2.65;;
84254;SDS011;74400;44.692;18.998;2024-03-23T09:26:12;4.88;;;2.80;;
84254;SDS011;74400;44.692;18.998;2024-03-23T09:28:38;4.90;;;2.88;;
84254;SDS011;74400;44.692;18.998;2024-03-23T09:31:04;3.35;;;2.78;;
84254;SDS011;74400;44.692;18.998;2024-03-23T09:33:31;5.15;;;2.88;;
84254;SDS011;74400;44.692;18.998;2024-03-23T09:35:57;5.60;;;2.55;;
84254;SDS011;74400;44.692;18.998;2024-03-23T09:38:22;5.32;;;2.50;;
84254;SDS011;74400;44.692;18.998;2024-03-23T09:40:52;4.72;;;2.50;;
84254;SDS011;74400;44.692;18.998;2024-03-23T09:43:18;3.92;;;2.53;;
84254;SDS011;74400;44.692;18.998;2024-03-23T09:45:45;2.20;;;2.00;;
84254;SDS011;74400;44.692;18.998;2024-03-23T09:48:12;3.13;;;2.20;;
84254;SDS011;74400;44.692;18.998;2024-03-23T09:50:38;4.50;;;2.50;;
84254;SDS011;74400;44.692;18.998;2024-03-23T09:53:09;2.10;;;1.90;;
84254;SDS011;74400;44.692;18.998;2024-03-23T09:55:38;3.55;;;2.10;;
84254;SDS011;74400;44.692;18.998;2024-03-23T09:58:06;4.50;;;2.40;;
84254;SDS011;74400;44.692;18.998;2024-03-23T10:00:32;3.75;;;2.50;;
84254;SDS011;74400;44.692;18.998;2024-03-23T10:02:59;4.25;;;2.60;;
84254;SDS011;74400;44.692;18.998;2024-03-23T10:05:27;3.92;;;2.53;;
84254;SDS011;74400;44.692;18.998;2024-03-23T10:07:54;3.25;;;2.53;;
84254;SDS011;74400;44.692;18.998;2024-03-23T10:10:20;3.10;;;2.15;;
84254;SDS011;74400;44.692;18.998;2024-03-23T10:12:49;3.05;;;2.40;;
84254;SDS011;74400;44.692;18.998;2024-03-23T10:15:19;3.90;;;2.88;;
84254;SDS011;74400;44.692;18.998;2024-03-23T10:17:49;4.93;;;2.60;;
84254;SDS011;74400;44.692;18.998;2024-03-23T10:20:22;3.33;;;2.40;;
84254;SDS011;74400;44.692;18.998;2024-03-23T10:22:49;5.00;;;2.53;;
84254;SDS011;74400;44.692;18.998;2024-03-23T10:25:16;4.88;;;2.42;;
84254;SDS011;74400;44.692;18.998;2024-03-23T10:27:42;4.10;;;2.60;;
84254;SDS011;74400;44.692;18.998;2024-03-23T10:30:09;5.15;;;2.70;;
84254;SDS011;74400;44.692;18.998;2024-03-23T10:32:36;3.65;;;2.80;;
84254;SDS011;74400;44.692;18.998;2024-03-23T10:37:32;4.28;;;2.80;;
84254;SDS011;74400;44.692;18.998;2024-03-23T10:39:58;5.03;;;2.58;;
84254;SDS011;74400;44.692;18.998;2024-03-23T10:42:24;7.15;;;2.55;;
84254;SDS011;74400;44.692;18.998;2024-03-23T10:44:50;3.45;;;2.53;;
84254;SDS011;74400;44.692;18.998;2024-03-23T10:47:16;2.75;;;1.95;;
84254;SDS011;74400;44.692;18.998;2024-03-23T10:49:41;7.05;;;2.70;;
84254;SDS011;74400;44.692;18.998;2024-03-23T10:52:07;5.65;;;2.38;;
84254;SDS011;74400;44.692;18.998;2024-03-23T10:54:33;5.07;;;2.17;;
84254;SDS011;74400;44.692;18.998;2024-03-23T10:59:33;5.47;;;2.40;;
84254;SDS011;74400;44.692;18.998;2024-03-23T11:02:01;6.78;;;3.03;;
84254;SDS011;74400;44.692;18.998;2024-03-23T11:04:33;4.45;;;2.72;;
84254;SDS011;74400;44.692;18.998;2024-03-23T11:07:00;3.97;;;2.50;;
84254;SDS011;74400;44.692;18.998;2024-03-23T11:09:39;2.95;;;2.35;;
84254;SDS011;74400;44.692;18.998;2024-03-23T11:14:49;3.92;;;2.55;;
84254;SDS011;74400;44.692;18.998;2024-03-23T11:17:19;3.00;;;2.63;;
84254;SDS011;74400;44.692;18.998;2024-03-23T11:19:54;4.13;;;2.83;;
84254;SDS011;74400;44.692;18.998;2024-03-23T11:22:40;3.75;;;2.58;;
84254;SDS011;74400;44.692;18.998;2024-03-23T11:25:19;6.00;;;2.63;;
84254;SDS011;74400;44.692;18.998;2024-03-23T11:27:47;4.18;;;3.08;;
84254;SDS011;74400;44.692;18.998;2024-03-23T11:30:17;2.92;;;2.58;;
84254;SDS011;74400;44.692;18.998;2024-03-23T11:32:48;3.33;;;2.70;;
84254;SDS011;74400;44.692;18.998;2024-03-23T11:35:39;4.65;;;2.78;;
84254;SDS011;74400;44.692;18.998;2024-03-23T11:40:33;4.55;;;3.10;;
84254;SDS011;74400;44.692;18.998;2024-03-23T11:43:00;4.10;;;2.60;;
84254;SDS011;74400;44.692;18.998;2024-03-23T11:45:33;4.10;;;2.35;;
84254;SDS011;74400;44.692;18.998;2024-03-23T11:50:31;4.32;;;2.70;;
84254;SDS011;74400;44.692;18.998;2024-03-23T11:56:05;4.60;;;2.80;;
84254;SDS011;74400;44.692;18.998;2024-03-23T11:58:26;6.22;;;3.80;;
84254;SDS011;74400;44.692;18.998;2024-03-23T12:03:22;5.85;;;2.92;;
84254;SDS011;74400;44.692;18.998;2024-03-23T12:05:53;4.22;;;3.00;;
84254;SDS011;74400;44.692;18.998;2024-03-23T12:08:24;3.55;;;2.83;;
84254;SDS011;74400;44.692;18.998;2024-03-23T12:11:03;5.90;;;2.97;;
84254;SDS011;74400;44.692;18.998;2024-03-23T12:13:32;4.50;;;3.10;;
84254;SDS011;74400;44.692;18.998;2024-03-23T12:18:32;6.13;;;3.22;;
84254;SDS011;74400;44.692;18.998;2024-03-23T12:20:58;3.95;;;2.80;;
84254;SDS011;74400;44.692;18.998;2024-03-23T12:23:23;3.95;;;3.03;;
84254;SDS011;74400;44.692;18.998;2024-03-23T12:25:49;5.43;;;2.85;;
84254;SDS011;74400;44.692;18.998;2024-03-23T12:28:15;6.05;;;3.55;;
84254;SDS011;74400;44.692;18.998;2024-03-23T12:30:40;4.68;;;3.10;;
84254;SDS011;74400;44.692;18.998;2024-03-23T12:33:07;5.97;;;3.38;;
84254;SDS011;74400;44.692;18.998;2024-03-23T12:35:32;7.80;;;4.05;;
84254;SDS011;74400;44.692;18.998;2024-03-23T12:37:59;4.97;;;2.88;;
84254;SDS011;74400;44.692;18.998;2024-03-23T12:40:25;6.05;;;3.90;;
84254;SDS011;74400;44.692;18.998;2024-03-23T12:42:53;7.20;;;3.95;;
84254;SDS011;74400;44.692;18.998;2024-03-23T12:45:19;5.47;;;4.07;;
84254;SDS011;74400;44.692;18.998;2024-03-23T12:47:44;5.57;;;4.10;;
84254;SDS011;74400;44.692;18.998;2024-03-23T12:50:10;5.05;;;3.80;;
84254;SDS011;74400;44.692;18.998;2024-03-23T12:52:36;6.68;;;3.95;;
84254;SDS011;74400;44.692;18.998;2024-03-23T12:55:03;5.38;;;4.10;;
84254;SDS011;74400;44.692;18.998;2024-03-23T12:57:31;7.05;;;3.55;;
84254;SDS011;74400;44.692;18.998;2024-03-23T12:59:58;3.65;;;3.10;;
84254;SDS011;74400;44.692;18.998;2024-03-23T13:02:24;4.10;;;3.63;;
84254;SDS011;74400;44.692;18.998;2024-03-23T13:04:50;4.78;;;2.90;;
84254;SDS011;74400;44.692;18.998;2024-03-23T13:07:17;5.45;;;3.40;;
84254;SDS011;74400;44.692;18.998;2024-03-23T13:09:43;5.40;;;3.72;;
84254;SDS011;74400;44.692;18.998;2024-03-23T13:12:10;4.38;;;2.95;;
84254;SDS011;74400;44.692;18.998;2024-03-23T13:14:37;5.10;;;3.00;;
84254;SDS011;74400;44.692;18.998;2024-03-23T13:17:04;5.78;;;3.58;;
84254;SDS011;74400;44.692;18.998;2024-03-23T13:19:30;6.28;;;3.72;;
84254;SDS011;74400;44.692;18.998;2024-03-23T13:21:57;5.38;;;2.92;;
84254;SDS011;74400;44.692;18.998;2024-03-23T13:24:27;5.80;;;3.42;;
84254;SDS011;74400;44.692;18.998;2024-03-23T13:26:54;4.47;;;3.22;;
84254;SDS011;74400;44.692;18.998;2024-03-23T13:29:20;3.78;;;2.83;;
84254;SDS011;74400;44.692;18.998;2024-03-23T13:31:48;5.97;;;3.35;;
84254;SDS011;74400;44.692;18.998;2024-03-23T13:34:14;5.25;;;3.28;;
84254;SDS011;74400;44.692;18.998;2024-03-23T13:36:41;5.32;;;2.83;;
84254;SDS011;74400;44.692;18.998;2024-03-23T13:39:07;5.28;;;3.05;;
84254;SDS011;74400;44.692;18.998;2024-03-23T13:41:42;5.15;;;2.92;;
84254;SDS011;74400;44.692;18.998;2024-03-23T13:44:10;3.60;;;2.72;;
84254;SDS011;74400;44.692;18.998;2024-03-23T13:46:40;5.25;;;3.25;;
84254;SDS011;74400;44.692;18.998;2024-03-23T13:49:10;7.80;;;2.55;;
84254;SDS011;74400;44.692;18.998;2024-03-23T13:51:49;3.40;;;2.85;;
84254;SDS011;74400;44.692;18.998;2024-03-23T13:54:15;3.92;;;2.70;;
84254;SDS011;74400;44.692;18.998;2024-03-23T13:56:41;7.43;;;3.08;;
84254;SDS011;74400;44.692;18.998;2024-03-23T14:01:32;4.63;;;3.03;;
84254;SDS011;74400;44.692;18.998;2024-03-23T14:03:58;5.97;;;2.97;;
84254;SDS011;74400;44.692;18.998;2024-03-23T14:06:24;4.15;;;3.25;;
84254;SDS011;74400;44.692;18.998;2024-03-23T14:08:50;5.13;;;3.30;;
84254;SDS011;74400;44.692;18.998;2024-03-23T14:11:17;5.78;;;3.30;;
84254;SDS011;74400;44.692;18.998;2024-03-23T14:13:44;4.18;;;3.00;;
84254;SDS011;74400;44.692;18.998;2024-03-23T14:16:09;6.20;;;3.50;;
84254;SDS011;74400;44.692;18.998;2024-03-23T14:18:35;6.25;;;3.70;;
84254;SDS011;74400;44.692;18.998;2024-03-23T14:21:01;4.32;;;2.97;;
84254;SDS011;74400;44.692;18.998;2024-03-23T14:23:28;5.05;;;3.40;;
84254;SDS011;74400;44.692;18.998;2024-03-23T14:25:58;4.15;;;3.55;;
84254;SDS011;74400;44.692;18.998;2024-03-23T14:28:24;9.13;;;3.97;;
84254;SDS011;74400;44.692;18.998;2024-03-23T14:30:51;5.35;;;3.40;;
84254;SDS011;74400;44.692;18.998;2024-03-23T14:33:17;5.57;;;3.53;;
84254;SDS011;74400;44.692;18.998;2024-03-23T14:35:43;5.25;;;3.78;;
84254;SDS011;74400;44.692;18.998;2024-03-23T14:38:17;4.55;;;3.38;;
84254;SDS011;74400;44.692;18.998;2024-03-23T14:40:43;3.63;;;2.90;;
84254;SDS011;74400;44.692;18.998;2024-03-23T14:43:09;5.70;;;3.47;;
84254;SDS011;74400;44.692;18.998;2024-03-23T14:45:35;6.88;;;3.42;;
84254;SDS011;74400;44.692;18.998;2024-03-23T14:48:00;4.53;;;3.60;;
84254;SDS011;74400;44.692;18.998;2024-03-23T14:50:31;7.13;;;3.60;;
84254;SDS011;74400;44.692;18.998;2024-03-23T14:52:57;5.68;;;3.50;;
84254;SDS011;74400;44.692;18.998;2024-03-23T14:55:22;5.50;;;3.72;;
84254;SDS011;74400;44.692;18.998;2024-03-23T14:57:48;4.05;;;3.63;;
84254;SDS011;74400;44.692;18.998;2024-03-23T15:00:16;5.88;;;3.70;;
84254;SDS011;74400;44.692;18.998;2024-03-23T15:02:43;5.53;;;3.63;;
84254;SDS011;74400;44.692;18.998;2024-03-23T15:05:10;6.95;;;4.15;;
84254;SDS011;74400;44.692;18.998;2024-03-23T15:07:36;8.55;;;5.93;;
84254;SDS011;74400;44.692;18.998;2024-03-23T15:10:05;13.07;;;9.38;;
84254;SDS011;74400;44.692;18.998;2024-03-23T15:12:31;12.13;;;7.45;;
84254;SDS011;74400;44.692;18.998;2024-03-23T15:14:59;8.68;;;6.45;;
84254;SDS011;74400;44.692;18.998;2024-03-23T15:17:25;8.00;;;5.88;;
84254;SDS011;74400;44.692;18.998;2024-03-23T15:19:51;11.57;;;6.50;;
84254;SDS011;74400;44.692;18.998;2024-03-23T15:22:19;12.68;;;7.00;;
84254;SDS011;74400;44.692;18.998;2024-03-23T15:24:46;7.53;;;5.40;;
84254;SDS011;74400;44.692;18.998;2024-03-23T15:27:12;9.27;;;5.82;;
84254;SDS011;74400;44.692;18.998;2024-03-23T15:29:38;9.40;;;5.80;;
84254;SDS011;74400;44.692;18.998;2024-03-23T15:32:04;8.02;;;5.45;;
84254;SDS011;74400;44.692;18.998;2024-03-23T15:34:31;6.95;;;4.97;;
84254;SDS011;74400;44.692;18.998;2024-03-23T15:36:57;6.35;;;4.80;;
84254;SDS011;74400;44.692;18.998;2024-03-23T15:39:22;11.45;;;6.68;;
84254;SDS011;74400;44.692;18.998;2024-03-23T15:41:48;8.93;;;6.72;;
84254;SDS011;74400;44.692;18.998;2024-03-23T15:44:14;11.10;;;6.55;;
84254;SDS011;74400;44.692;18.998;2024-03-23T15:46:39;16.23;;;8.27;;
84254;SDS011;74400;44.692;18.998;2024-03-23T15:49:05;9.57;;;7.47;;
84254;SDS011;74400;44.692;18.998;2024-03-23T15:51:32;9.57;;;5.90;;